Time,TemperatureF,DewpointF,PressureIn,WindDirection,WindDirectionDegrees,WindSpeedMPH,WindSpeedGustMPH,Humidity,HourlyPrecipIn,Conditions,Clouds,dailyrainin,SoftwareType,DateUTC
2014-01-10 00:05:00,30.6,18.0,30.50,SSW,199,11.0,12.0,59,0.00,,,0.00,Wunderground v.1.15,2014-01-10 05:05:00,
2014-01-10 00:09:00,30.1,17.9,30.50,SSW,211,11.0,13.0,60,0.00,,,0.00,Wunderground v.1.15,2014-01-10 05:09:00,
2014-01-10 00:19:00,29.8,17.6,30.50,SSW,208,13.0,13.0,60,0.00,,,0.00,Wunderground v.1.15,2014-01-10 05:19:00,
2014-01-10 00:24:00,29.8,17.6,30.49,SSW,200,12.0,14.0,60,0.00,,,0.00,Wunderground v.1.15,2014-01-10 05:24:00,
2014-01-10 00:29:00,30.3,17.7,30.49,SSW,198,13.0,13.0,59,0.00,,,0.00,Wunderground v.1.15,2014-01-10 05:29:00,
2014-01-10 00:39:00,29.7,17.5,30.49,SSW,204,11.0,12.0,60,0.00,,,0.00,Wunderground v.1.15,2014-01-10 05:39:00,
2014-01-10 00:49:00,29.5,17.3,30.49,SSW,211,12.0,12.0,60,0.00,,,0.00,Wunderground v.1.15,2014-01-10 05:49:00,
2014-01-10 00:54:00,28.2,17.6,30.48,SSW,205,11.0,12.0,64,0.00,,,0.00,Wunderground v.1.15,2014-01-10 05:54:00,
2014-01-10 01:04:00,27.4,18.2,30.48,SSW,204,9.0,10.0,68,0.00,,,0.00,Wunderground v.1.15,2014-01-10 06:04:00,
2014-01-10 01:09:00,27.6,18.4,30.48,SSW,211,9.0,10.0,68,0.00,,,0.00,Wunderground v.1.15,2014-01-10 06:09:00,
2014-01-10 01:14:00,27.6,18.1,30.48,SSW,205,10.0,10.0,67,0.00,,,0.00,Wunderground v.1.15,2014-01-10 06:14:00,
2014-01-10 01:19:00,27.8,18.3,30.48,SSW,208,9.0,9.0,67,0.00,,,0.00,Wunderground v.1.15,2014-01-10 06:19:00,
2014-01-10 01:24:00,28.0,18.1,30.48,SSW,208,9.0,9.0,66,0.00,,,0.00,Wunderground v.1.15,2014-01-10 06:24:00,
2014-01-10 01:34:00,28.6,18.3,30.48,SSW,209,10.0,10.0,65,0.00,,,0.00,Wunderground v.1.15,2014-01-10 06:34:00,
2014-01-10 01:39:00,29.1,18.4,30.47,SSW,198,10.0,12.0,64,0.00,,,0.00,Wunderground v.1.15,2014-01-10 06:39:00,
2014-01-10 01:44:00,29.5,18.4,30.47,SSW,204,10.0,12.0,63,0.00,,,0.00,Wunderground v.1.15,2014-01-10 06:44:00,
2014-01-10 01:49:00,29.4,19.1,30.47,SSW,213,9.0,9.0,65,0.00,,,0.00,Wunderground v.1.15,2014-01-10 06:49:00,
2014-01-10 01:54:00,29.0,19.1,30.48,SSW,213,9.0,9.0,66,0.00,,,0.00,Wunderground v.1.15,2014-01-10 06:54:00,
2014-01-10 02:04:00,29.4,18.7,30.48,SSW,211,9.0,9.0,64,0.00,,,0.00,Wunderground v.1.15,2014-01-10 07:04:00,
2014-01-10 02:09:00,29.4,18.7,30.48,SSW,207,10.0,10.0,64,0.00,,,0.00,Wunderground v.1.15,2014-01-10 07:09:00,
2014-01-10 02:14:00,29.5,18.8,30.48,SSW,205,10.0,10.0,64,0.00,,,0.00,Wunderground v.1.15,2014-01-10 07:14:00,
2014-01-10 02:19:00,29.8,18.7,30.48,SSW,211,11.0,11.0,63,0.00,,,0.00,Wunderground v.1.15,2014-01-10 07:19:00,
2014-01-10 02:24:00,29.9,19.6,30.48,SSW,207,11.0,11.0,65,0.00,,,0.00,Wunderground v.1.15,2014-01-10 07:24:00,
2014-01-10 02:29:00,30.1,19.4,30.48,SSW,213,11.0,11.0,64,0.00,,,0.00,Wunderground v.1.15,2014-01-10 07:29:00,
2014-01-10 02:34:00,30.1,19.7,30.48,SW,214,11.0,11.0,65,0.00,,,0.00,Wunderground v.1.15,2014-01-10 07:34:00,
2014-01-10 02:39:00,30.2,19.8,30.48,SSW,207,11.0,11.0,65,0.00,,,0.00,Wunderground v.1.15,2014-01-10 07:39:00,
2014-01-10 02:44:00,30.4,19.7,30.48,SSW,213,11.0,13.0,64,0.00,,,0.00,Wunderground v.1.15,2014-01-10 07:44:00,
2014-01-10 02:49:00,30.6,19.9,30.48,SSW,209,11.0,11.0,64,0.00,,,0.00,Wunderground v.1.15,2014-01-10 07:49:00,
2014-01-10 02:59:00,30.8,20.4,30.47,SSW,209,12.0,12.0,65,0.00,,,0.00,Wunderground v.1.15,2014-01-10 07:59:00,
2014-01-10 03:04:00,30.8,20.4,30.47,SSW,207,12.0,12.0,65,0.00,,,0.00,Wunderground v.1.15,2014-01-10 08:04:00,
2014-01-10 03:09:00,30.8,20.4,30.48,SSW,209,12.0,12.0,65,0.00,,,0.00,Wunderground v.1.15,2014-01-10 08:09:00,
2014-01-10 03:14:00,30.6,21.3,30.47,SSW,196,11.0,12.0,68,0.00,,,0.00,Wunderground v.1.15,2014-01-10 08:14:00,
2014-01-10 03:19:00,30.4,21.8,30.48,SSW,206,10.0,10.0,70,0.00,,,0.00,Wunderground v.1.15,2014-01-10 08:19:00,
2014-01-10 03:24:00,30.8,21.1,30.47,SW,214,11.0,11.0,67,0.00,,,0.00,Wunderground v.1.15,2014-01-10 08:24:00,
2014-01-10 03:34:00,30.8,21.5,30.47,SSW,210,10.0,11.0,68,0.00,,,0.00,Wunderground v.1.15,2014-01-10 08:34:00,
2014-01-10 03:39:00,30.7,22.1,30.47,SSW,207,10.0,10.0,70,0.00,,,0.00,Wunderground v.1.15,2014-01-10 08:39:00,
2014-01-10 03:49:00,30.4,22.4,30.47,SSW,192,8.0,8.0,72,0.00,,,0.00,Wunderground v.1.15,2014-01-10 08:49:00,
2014-01-10 03:59:00,30.2,22.9,30.46,SSW,199,8.0,10.0,74,0.00,,,0.00,Wunderground v.1.15,2014-01-10 08:59:00,
2014-01-10 04:04:00,30.1,22.8,30.46,SSW,201,9.0,10.0,74,0.00,,,0.00,Wunderground v.1.15,2014-01-10 09:04:00,
2014-01-10 04:09:00,30.1,23.1,30.45,South,190,9.0,9.0,75,0.00,,,0.00,Wunderground v.1.15,2014-01-10 09:09:00,
2014-01-10 04:14:00,30.1,23.4,30.46,SSW,194,9.0,9.0,76,0.00,,,0.00,Wunderground v.1.15,2014-01-10 09:14:00,
2014-01-10 04:19:00,30.1,23.8,30.45,SSW,194,9.0,9.0,77,0.00,,,0.00,Wunderground v.1.15,2014-01-10 09:19:00,
2014-01-10 04:24:00,30.0,23.7,30.45,South,187,9.0,9.0,77,0.00,,,0.00,Wunderground v.1.15,2014-01-10 09:24:00,
2014-01-10 04:29:00,30.0,24.3,30.45,SSW,192,9.0,9.0,79,0.00,,,0.00,Wunderground v.1.15,2014-01-10 09:29:00,
2014-01-10 04:34:00,29.9,24.5,30.44,SSW,198,9.0,10.0,80,0.00,,,0.00,Wunderground v.1.15,2014-01-10 09:34:00,
2014-01-10 04:44:00,29.9,25.4,30.45,SSW,207,10.0,10.0,83,0.00,,,0.00,Wunderground v.1.15,2014-01-10 09:44:00,
2014-01-10 04:49:00,29.9,25.7,30.44,SSW,196,9.0,9.0,84,0.00,,,0.00,Wunderground v.1.15,2014-01-10 09:49:00,
2014-01-10 04:54:00,29.9,25.7,30.45,SSW,203,9.0,9.0,84,0.00,,,0.00,Wunderground v.1.15,2014-01-10 09:54:00,
2014-01-10 04:59:00,30.0,26.0,30.45,SSW,198,9.0,9.0,85,0.00,,,0.00,Wunderground v.1.15,2014-01-10 09:59:00,
2014-01-10 05:04:00,30.0,26.3,30.45,SSW,206,9.0,9.0,86,0.00,,,0.01,Wunderground v.1.15,2014-01-10 10:04:00,
2014-01-10 05:09:00,30.0,26.3,30.45,SSW,210,9.0,9.0,86,0.00,,,0.01,Wunderground v.1.15,2014-01-10 10:09:00,
2014-01-10 05:19:00,29.9,26.5,30.44,SSW,205,8.0,9.0,87,0.00,,,0.01,Wunderground v.1.15,2014-01-10 10:19:00,
2014-01-10 05:24:00,29.9,26.5,30.44,SSW,209,9.0,9.0,87,0.00,,,0.01,Wunderground v.1.15,2014-01-10 10:24:00,
2014-01-10 05:34:00,30.0,26.9,30.44,SW,219,9.0,9.0,88,0.00,,,0.01,Wunderground v.1.15,2014-01-10 10:34:00,
2014-01-10 05:39:00,30.0,26.9,30.44,SW,215,8.0,10.0,88,0.00,,,0.01,Wunderground v.1.15,2014-01-10 10:39:00,
2014-01-10 05:44:00,30.1,27.0,30.44,SW,217,9.0,10.0,88,0.00,,,0.01,Wunderground v.1.15,2014-01-10 10:44:00,
2014-01-10 05:54:00,30.3,27.4,30.44,SSW,213,8.0,9.0,89,0.00,,,0.01,Wunderground v.1.15,2014-01-10 10:54:00,
2014-01-10 05:59:00,30.3,27.4,30.43,SW,219,8.0,8.0,89,0.00,,,0.02,Wunderground v.1.15,2014-01-10 10:59:00,
2014-01-10 06:04:00,30.3,27.4,30.43,SW,215,8.0,8.0,89,0.00,,,0.02,Wunderground v.1.15,2014-01-10 11:04:00,
2014-01-10 06:09:00,30.4,27.5,30.43,SW,221,7.0,7.0,89,0.00,,,0.02,Wunderground v.1.15,2014-01-10 11:09:00,
2014-01-10 06:14:00,30.5,27.6,30.43,SSW,201,7.0,8.0,89,0.00,,,0.02,Wunderground v.1.15,2014-01-10 11:14:00,
2014-01-10 06:24:00,30.6,27.7,30.43,SSW,209,8.0,8.0,89,0.00,,,0.03,Wunderground v.1.15,2014-01-10 11:24:00,
2014-01-10 06:29:00,30.7,28.1,30.44,SSW,202,8.0,8.0,90,0.00,,,0.03,Wunderground v.1.15,2014-01-10 11:29:00,
2014-01-10 06:34:00,30.8,28.2,30.44,SSW,202,9.0,10.0,90,0.00,,,0.03,Wunderground v.1.15,2014-01-10 11:34:00,
2014-01-10 06:39:00,30.8,28.2,30.44,SSW,192,9.0,10.0,90,0.00,,,0.03,Wunderground v.1.15,2014-01-10 11:39:00,
2014-01-10 06:49:00,30.7,28.1,30.44,SSW,213,9.0,9.0,90,0.00,,,0.03,Wunderground v.1.15,2014-01-10 11:49:00,
2014-01-10 06:54:00,30.7,28.1,30.44,SW,214,9.0,9.0,90,0.00,,,0.03,Wunderground v.1.15,2014-01-10 11:54:00,
2014-01-10 06:59:00,30.8,28.2,30.44,SW,215,9.0,9.0,90,0.00,,,0.03,Wunderground v.1.15,2014-01-10 11:59:00,
2014-01-10 07:04:00,30.9,28.3,30.44,SSW,203,8.0,9.0,90,0.00,,,0.03,Wunderground v.1.15,2014-01-10 12:04:00,
2014-01-10 07:09:00,30.9,28.3,30.44,SSW,204,8.0,8.0,90,0.00,,,0.03,Wunderground v.1.15,2014-01-10 12:09:00,
2014-01-10 07:19:00,31.0,28.4,30.44,SSW,205,8.0,8.0,90,0.00,,,0.04,Wunderground v.1.15,2014-01-10 12:19:00,
2014-01-10 07:29:00,31.0,28.4,30.44,SSW,202,7.0,7.0,90,0.00,,,0.04,Wunderground v.1.15,2014-01-10 12:29:00,
2014-01-10 07:34:00,31.0,28.4,30.44,SSW,202,7.0,9.0,90,0.00,,,0.04,Wunderground v.1.15,2014-01-10 12:34:00,
2014-01-10 07:39:00,31.0,28.4,30.44,SSW,211,8.0,8.0,90,0.00,,,0.04,Wunderground v.1.15,2014-01-10 12:39:00,
2014-01-10 07:44:00,31.0,28.4,30.43,SSW,205,8.0,9.0,90,0.00,,,0.04,Wunderground v.1.15,2014-01-10 12:44:00,
2014-01-10 07:49:00,31.1,28.5,30.43,SSW,209,8.0,9.0,90,0.00,,,0.05,Wunderground v.1.15,2014-01-10 12:49:00,
2014-01-10 07:54:00,31.1,28.5,30.43,SSW,206,8.0,9.0,90,0.00,,,0.05,Wunderground v.1.15,2014-01-10 12:54:00,
2014-01-10 07:59:00,31.1,28.5,30.43,SSW,197,8.0,9.0,90,0.00,,,0.05,Wunderground v.1.15,2014-01-10 12:59:00,
2014-01-10 08:09:00,31.1,28.5,30.43,SSW,194,8.0,8.0,90,0.00,,,0.05,Wunderground v.1.15,2014-01-10 13:09:00,
2014-01-10 08:14:00,31.1,28.5,30.43,SSW,193,8.0,8.0,90,0.00,,,0.05,Wunderground v.1.15,2014-01-10 13:14:00,
2014-01-10 08:19:00,31.1,28.5,30.43,SSW,202,8.0,8.0,90,0.00,,,0.05,Wunderground v.1.15,2014-01-10 13:19:00,
2014-01-10 08:24:00,31.2,28.6,30.43,SSW,207,8.0,8.0,90,0.00,,,0.05,Wunderground v.1.15,2014-01-10 13:24:00,
2014-01-10 08:29:00,31.2,28.6,30.43,SSW,213,8.0,8.0,90,0.00,,,0.05,Wunderground v.1.15,2014-01-10 13:29:00,
2014-01-10 08:34:00,31.2,28.6,30.43,SSW,212,8.0,8.0,90,0.00,,,0.05,Wunderground v.1.15,2014-01-10 13:34:00,
2014-01-10 08:44:00,31.2,28.6,30.44,SSW,207,7.0,7.0,90,0.00,,,0.05,Wunderground v.1.15,2014-01-10 13:44:00,
2014-01-10 08:49:00,31.3,28.7,30.44,SSW,192,7.0,7.0,90,0.00,,,0.05,Wunderground v.1.15,2014-01-10 13:49:00,
2014-01-10 08:54:00,31.4,28.8,30.44,SSW,192,6.0,7.0,90,0.00,,,0.05,Wunderground v.1.15,2014-01-10 13:54:00,
2014-01-10 08:59:00,31.5,28.9,30.44,SSW,203,6.0,7.0,90,0.00,,,0.05,Wunderground v.1.15,2014-01-10 13:59:00,
2014-01-10 09:09:00,31.5,28.9,30.44,SSW,204,6.0,7.0,90,0.00,,,0.05,Wunderground v.1.15,2014-01-10 14:09:00,
2014-01-10 09:14:00,31.6,29.0,30.45,SSW,205,6.0,7.0,90,0.00,,,0.05,Wunderground v.1.15,2014-01-10 14:14:00,
2014-01-10 09:19:00,31.6,29.0,30.45,SSW,205,6.0,6.0,90,0.00,,,0.05,Wunderground v.1.15,2014-01-10 14:19:00,
2014-01-10 09:24:00,31.7,29.1,30.45,SSW,205,5.0,6.0,90,0.00,,,0.05,Wunderground v.1.15,2014-01-10 14:24:00,
2014-01-10 09:34:00,31.9,29.3,30.44,SSW,205,4.0,5.0,90,0.00,,,0.05,Wunderground v.1.15,2014-01-10 14:34:00,
2014-01-10 09:39:00,31.9,29.3,30.44,SSW,205,3.0,3.0,90,0.00,,,0.05,Wunderground v.1.15,2014-01-10 14:39:00,
2014-01-10 09:44:00,32.0,29.4,30.44,SSW,205,2.0,3.0,90,0.00,,,0.05,Wunderground v.1.15,2014-01-10 14:44:00,
2014-01-10 09:54:00,32.0,29.4,30.43,SSW,205,4.0,4.0,90,0.00,,,0.06,Wunderground v.1.15,2014-01-10 14:54:00,
2014-01-10 09:59:00,32.0,29.4,30.43,SSW,205,4.0,4.0,90,0.00,,,0.06,Wunderground v.1.15,2014-01-10 14:59:00,
2014-01-10 10:04:00,32.1,29.5,30.43,SSW,205,3.0,4.0,90,0.00,,,0.06,Wunderground v.1.15,2014-01-10 15:04:00,
2014-01-10 10:14:00,32.1,29.5,30.43,SSW,205,3.0,3.0,90,0.00,,,0.07,Wunderground v.1.15,2014-01-10 15:14:00,
2014-01-10 10:24:00,32.2,29.6,30.43,SSW,205,4.0,4.0,90,0.00,,,0.07,Wunderground v.1.15,2014-01-10 15:24:00,
2014-01-10 10:29:00,32.2,29.6,30.43,SSW,205,4.0,5.0,90,0.00,,,0.07,Wunderground v.1.15,2014-01-10 15:29:00,
2014-01-10 10:34:00,32.2,29.6,30.43,SSW,205,5.0,5.0,90,0.00,,,0.07,Wunderground v.1.15,2014-01-10 15:34:00,
2014-01-10 10:44:00,32.3,29.7,30.43,SSW,205,5.0,6.0,90,0.00,,,0.08,Wunderground v.1.15,2014-01-10 15:44:00,
2014-01-10 10:49:00,32.4,29.8,30.43,SSW,204,5.0,5.0,90,0.06,,,0.09,Wunderground v.1.15,2014-01-10 15:49:00,
2014-01-10 10:54:00,32.5,30.2,30.42,SSW,204,5.0,6.0,91,0.06,,,0.09,Wunderground v.1.15,2014-01-10 15:54:00,
2014-01-10 10:59:00,32.5,30.2,30.42,SSW,204,5.0,5.0,91,0.05,,,0.09,Wunderground v.1.15,2014-01-10 15:59:00,
2014-01-10 11:04:00,32.7,30.1,30.42,SSW,205,5.0,5.0,90,0.04,,,0.09,Wunderground v.1.15,2014-01-10 16:04:00,
2014-01-10 11:14:00,33.0,30.4,30.42,SSW,205,6.0,6.0,90,0.11,,,0.11,Wunderground v.1.15,2014-01-10 16:14:00,
2014-01-10 11:19:00,33.1,30.5,30.41,SSW,205,6.0,6.0,90,0.06,,,0.12,Wunderground v.1.15,2014-01-10 16:19:00,
2014-01-10 11:29:00,33.7,31.1,30.41,SSW,205,6.0,6.0,90,0.07,,,0.13,Wunderground v.1.15,2014-01-10 16:29:00,
2014-01-10 11:34:00,34.0,31.4,30.40,SSW,205,6.0,6.0,90,0.05,,,0.14,Wunderground v.1.15,2014-01-10 16:34:00,
2014-01-10 11:39:00,34.3,31.7,30.40,SSW,205,5.0,5.0,90,0.14,,,0.15,Wunderground v.1.15,2014-01-10 16:39:00,
2014-01-10 11:44:00,34.5,31.9,30.39,SSW,205,5.0,5.0,90,0.08,,,0.15,Wunderground v.1.15,2014-01-10 16:44:00,
2014-01-10 11:49:00,35.0,32.4,30.39,SSW,205,4.0,4.0,90,0.05,,,0.15,Wunderground v.1.15,2014-01-10 16:49:00,
2014-01-10 11:54:00,35.3,32.7,30.38,SSW,205,4.0,4.0,90,0.04,,,0.16,Wunderground v.1.15,2014-01-10 16:54:00,
2014-01-10 12:04:00,36.1,33.5,30.37,SSW,205,4.0,5.0,90,0.04,,,0.16,Wunderground v.1.15,2014-01-10 17:04:00,
2014-01-10 12:09:00,36.5,33.8,30.36,SSW,205,5.0,6.0,90,0.00,,,0.16,Wunderground v.1.15,2014-01-10 17:09:00,
2014-01-10 12:14:00,36.6,33.9,30.36,SSW,205,6.0,7.0,90,0.00,,,0.16,Wunderground v.1.15,2014-01-10 17:14:00,
2014-01-10 12:19:00,36.8,34.1,30.36,SSW,205,7.0,7.0,90,0.00,,,0.16,Wunderground v.1.15,2014-01-10 17:19:00,
2014-01-10 12:24:00,37.4,34.7,30.36,SSW,205,7.0,7.0,90,0.00,,,0.16,Wunderground v.1.15,2014-01-10 17:24:00,
2014-01-10 12:34:00,39.0,36.3,30.35,SSW,212,7.0,7.0,90,0.00,,,0.16,Wunderground v.1.15,2014-01-10 17:34:00,
2014-01-10 12:39:00,39.5,36.8,30.35,SSW,212,7.0,7.0,90,0.00,,,0.16,Wunderground v.1.15,2014-01-10 17:39:00,
2014-01-10 12:44:00,40.0,37.3,30.34,SW,217,7.0,9.0,90,0.00,,,0.17,Wunderground v.1.15,2014-01-10 17:44:00,
2014-01-10 12:49:00,40.2,37.5,30.34,SW,219,8.0,9.0,90,0.00,,,0.17,Wunderground v.1.15,2014-01-10 17:49:00,
2014-01-10 13:00:00,40.4,37.7,30.33,SW,214,8.0,8.0,90,0.00,,,0.17,Wunderground v.1.15,2014-01-10 18:00:00,
2014-01-10 13:09:00,40.9,38.2,30.33,SSW,212,8.0,8.0,90,0.00,,,0.17,Wunderground v.1.15,2014-01-10 18:09:00,
2014-01-10 13:19:00,41.2,38.5,30.33,SSW,212,7.0,7.0,90,0.00,,,0.17,Wunderground v.1.15,2014-01-10 18:19:00,
2014-01-10 13:24:00,41.0,38.3,30.32,SSW,212,7.0,7.0,90,0.00,,,0.17,Wunderground v.1.15,2014-01-10 18:24:00,
2014-01-10 13:29:00,41.2,38.5,30.32,SSW,213,6.0,6.0,90,0.00,,,0.17,Wunderground v.1.15,2014-01-10 18:29:00,
2014-01-10 13:39:00,40.9,38.2,30.31,SW,214,6.0,6.0,90,0.00,,,0.17,Wunderground v.1.15,2014-01-10 18:39:00,
2014-01-10 13:44:00,40.7,38.3,30.31,SW,214,6.0,6.0,91,0.00,,,0.17,Wunderground v.1.15,2014-01-10 18:44:00,
2014-01-10 13:49:00,40.7,38.0,30.31,SW,215,6.0,6.0,90,0.00,,,0.17,Wunderground v.1.15,2014-01-10 18:49:00,
2014-01-10 13:59:00,41.0,38.3,30.30,SW,215,6.0,6.0,90,0.00,,,0.17,Wunderground v.1.15,2014-01-10 18:59:00,
2014-01-10 14:09:00,41.4,38.7,30.29,SW,215,6.0,7.0,90,0.00,,,0.17,Wunderground v.1.15,2014-01-10 19:09:00,
2014-01-10 14:14:00,41.4,38.7,30.29,SW,215,6.0,7.0,90,0.00,,,0.17,Wunderground v.1.15,2014-01-10 19:14:00,
2014-01-10 14:19:00,41.5,38.8,30.29,SSW,213,7.0,7.0,90,0.00,,,0.17,Wunderground v.1.15,2014-01-10 19:19:00,
2014-01-10 14:29:00,41.7,39.0,30.28,SSW,213,6.0,6.0,90,0.00,,,0.17,Wunderground v.1.15,2014-01-10 19:29:00,
2014-01-10 14:34:00,41.8,39.1,30.28,SSW,213,5.0,6.0,90,0.00,,,0.17,Wunderground v.1.15,2014-01-10 19:34:00,
2014-01-10 14:44:00,41.8,39.1,30.28,SSW,213,5.0,5.0,90,0.00,,,0.17,Wunderground v.1.15,2014-01-10 19:44:00,
2014-01-10 14:49:00,41.9,39.5,30.28,SSW,213,5.0,5.0,91,0.00,,,0.17,Wunderground v.1.15,2014-01-10 19:49:00,
2014-01-10 14:54:00,42.0,39.6,30.28,SSW,213,5.0,5.0,91,0.00,,,0.17,Wunderground v.1.15,2014-01-10 19:54:00,
2014-01-10 14:59:00,42.0,39.6,30.28,SSW,213,5.0,6.0,91,0.00,,,0.17,Wunderground v.1.15,2014-01-10 19:59:00,
2014-01-10 15:04:00,42.0,39.6,30.28,SSW,213,6.0,7.0,91,0.00,,,0.17,Wunderground v.1.15,2014-01-10 20:04:00,
2014-01-10 15:09:00,42.0,39.6,30.27,SSW,213,5.0,5.0,91,0.00,,,0.17,Wunderground v.1.15,2014-01-10 20:09:00,
2014-01-10 15:19:00,41.8,39.1,30.27,SSW,213,4.0,4.0,90,0.00,,,0.17,Wunderground v.1.15,2014-01-10 20:19:00,
2014-01-10 15:24:00,41.7,39.0,30.27,SSW,213,4.0,4.0,90,0.00,,,0.17,Wunderground v.1.15,2014-01-10 20:24:00,
2014-01-10 15:34:00,41.8,39.1,30.27,SSW,213,2.0,3.0,90,0.00,,,0.17,Wunderground v.1.15,2014-01-10 20:34:00,
2014-01-10 15:39:00,41.8,39.1,30.27,SSW,213,2.0,2.0,90,0.00,,,0.17,Wunderground v.1.15,2014-01-10 20:39:00,
2014-01-10 15:44:00,41.9,39.5,30.27,SSW,213,2.0,2.0,91,0.00,,,0.17,Wunderground v.1.15,2014-01-10 20:44:00,
2014-01-10 15:54:00,41.8,39.1,30.27,SSW,213,2.0,4.0,90,0.00,,,0.17,Wunderground v.1.15,2014-01-10 20:54:00,
2014-01-10 15:59:00,41.8,39.1,30.26,SSW,213,3.0,5.0,90,0.00,,,0.17,Wunderground v.1.15,2014-01-10 20:59:00,
2014-01-10 16:04:00,41.7,39.0,30.27,SSW,213,4.0,5.0,90,0.00,,,0.17,Wunderground v.1.15,2014-01-10 21:04:00,
2014-01-10 16:09:00,41.7,39.0,30.27,SSW,213,4.0,4.0,90,0.00,,,0.17,Wunderground v.1.15,2014-01-10 21:09:00,
2014-01-10 16:14:00,41.6,38.9,30.26,SSW,213,3.0,4.0,90,0.00,,,0.17,Wunderground v.1.15,2014-01-10 21:14:00,
2014-01-10 16:24:00,41.7,39.0,30.26,SSW,213,3.0,3.0,90,0.00,,,0.17,Wunderground v.1.15,2014-01-10 21:24:00,
2014-01-10 16:34:00,41.8,39.1,30.26,SSW,213,3.0,4.0,90,0.00,,,0.17,Wunderground v.1.15,2014-01-10 21:34:00,
2014-01-10 16:39:00,42.1,39.4,30.26,SSW,213,4.0,4.0,90,0.00,,,0.17,Wunderground v.1.15,2014-01-10 21:39:00,
2014-01-10 16:44:00,42.2,39.5,30.25,SSW,213,4.0,4.0,90,0.00,,,0.17,Wunderground v.1.15,2014-01-10 21:44:00,
2014-01-10 16:54:00,42.3,39.6,30.25,South,188,4.0,5.0,90,0.00,,,0.17,Wunderground v.1.15,2014-01-10 21:54:00,
2014-01-10 17:04:00,42.5,39.8,30.25,South,183,4.0,4.0,90,0.00,,,0.17,Wunderground v.1.15,2014-01-10 22:04:00,
2014-01-10 17:09:00,42.5,39.8,30.25,South,183,4.0,4.0,90,0.00,,,0.17,Wunderground v.1.15,2014-01-10 22:09:00,
2014-01-10 17:14:00,42.5,39.8,30.25,South,183,3.0,4.0,90,0.00,,,0.17,Wunderground v.1.15,2014-01-10 22:14:00,
2014-01-10 17:19:00,42.4,39.7,30.25,South,183,1.0,2.0,90,0.00,,,0.17,Wunderground v.1.15,2014-01-10 22:19:00,
2014-01-10 17:24:00,42.3,39.6,30.25,South,183,1.0,3.0,90,0.00,,,0.17,Wunderground v.1.15,2014-01-10 22:24:00,
2014-01-10 17:34:00,42.2,39.8,30.25,South,183,1.0,1.0,91,0.00,,,0.17,Wunderground v.1.15,2014-01-10 22:34:00,
2014-01-10 17:39:00,42.0,39.6,30.25,South,183,2.0,3.0,91,0.00,,,0.17,Wunderground v.1.15,2014-01-10 22:39:00,
2014-01-10 17:44:00,42.2,39.5,30.25,South,183,3.0,3.0,90,0.00,,,0.17,Wunderground v.1.15,2014-01-10 22:44:00,
2014-01-10 17:49:00,42.4,39.7,30.24,South,183,3.0,3.0,90,0.00,,,0.17,Wunderground v.1.15,2014-01-10 22:49:00,
2014-01-10 17:54:00,42.3,39.6,30.24,South,183,3.0,3.0,90,0.00,,,0.17,Wunderground v.1.15,2014-01-10 22:54:00,
2014-01-10 18:04:00,42.1,39.7,30.25,South,183,1.0,2.0,91,0.00,,,0.17,Wunderground v.1.15,2014-01-10 23:04:00,
2014-01-10 18:14:00,41.7,39.0,30.25,South,183,0.0,0.0,90,0.00,,,0.17,Wunderground v.1.15,2014-01-10 23:14:00,
2014-01-10 18:19:00,41.7,39.0,30.24,South,183,0.0,0.0,90,0.00,,,0.17,Wunderground v.1.15,2014-01-10 23:19:00,
2014-01-10 18:24:00,41.6,38.9,30.24,South,183,0.0,2.0,90,0.00,,,0.17,Wunderground v.1.15,2014-01-10 23:24:00,
2014-01-10 18:29:00,41.8,39.1,30.24,South,183,1.0,1.0,90,0.00,,,0.17,Wunderground v.1.15,2014-01-10 23:29:00,
2014-01-10 18:34:00,41.9,39.5,30.24,South,183,2.0,2.0,91,0.00,,,0.17,Wunderground v.1.15,2014-01-10 23:34:00,
2014-01-10 18:39:00,42.0,39.3,30.24,South,183,1.0,1.0,90,0.00,,,0.17,Wunderground v.1.15,2014-01-10 23:39:00,
2014-01-10 18:44:00,42.1,39.4,30.24,South,183,0.0,1.0,90,0.00,,,0.17,Wunderground v.1.15,2014-01-10 23:44:00,
2014-01-10 18:49:00,42.1,39.7,30.25,South,183,0.0,0.0,91,0.00,,,0.17,Wunderground v.1.15,2014-01-10 23:49:00,
2014-01-10 18:54:00,41.9,39.5,30.25,South,183,1.0,2.0,91,0.00,,,0.17,Wunderground v.1.15,2014-01-10 23:54:00,
2014-01-10 19:04:00,41.8,39.1,30.24,South,183,4.0,4.0,90,0.00,,,0.17,Wunderground v.1.15,2014-01-11 00:04:00,
2014-01-10 19:09:00,41.8,39.1,30.23,South,183,4.0,4.0,90,0.00,,,0.17,Wunderground v.1.15,2014-01-11 00:09:00,
2014-01-10 19:19:00,42.0,39.3,30.23,SSW,211,3.0,7.0,90,0.00,,,0.17,Wunderground v.1.15,2014-01-11 00:19:00,
2014-01-10 19:24:00,42.4,39.7,30.23,SW,219,6.0,11.0,90,0.00,,,0.17,Wunderground v.1.15,2014-01-11 00:24:00,
2014-01-10 19:35:00,42.5,39.8,30.23,SSW,195,7.0,8.0,90,0.00,,,0.18,Wunderground v.1.15,2014-01-11 00:35:00,
2014-01-10 19:45:00,42.4,39.7,30.23,South,190,7.0,7.0,90,0.00,,,0.18,Wunderground v.1.15,2014-01-11 00:45:00,
2014-01-10 19:54:00,42.2,39.5,30.23,South,184,7.0,8.0,90,0.00,,,0.18,Wunderground v.1.15,2014-01-11 00:54:00,
2014-01-10 20:04:00,42.0,39.6,30.23,South,180,6.0,6.0,91,0.00,,,0.18,Wunderground v.1.15,2014-01-11 01:04:00,
2014-01-10 20:14:00,42.8,40.1,30.22,WSW,248,10.0,11.0,90,0.00,,,0.18,Wunderground v.1.15,2014-01-11 01:14:00,
2014-01-10 20:20:00,42.8,40.1,30.22,SW,215,12.0,12.0,90,0.00,,,0.18,Wunderground v.1.15,2014-01-11 01:20:00,
2014-01-10 20:25:00,42.8,40.1,30.22,WSW,248,11.0,12.0,90,0.00,,,0.18,Wunderground v.1.15,2014-01-11 01:25:00,
2014-01-10 20:34:00,42.7,40.3,30.22,SW,215,9.0,9.0,91,0.00,,,0.18,Wunderground v.1.15,2014-01-11 01:34:00,
2014-01-10 20:44:00,42.3,39.6,30.22,SSW,197,5.0,5.0,90,0.00,,,0.18,Wunderground v.1.15,2014-01-11 01:44:00,
2014-01-10 20:54:00,42.1,39.7,30.22,SW,216,4.0,4.0,91,0.00,,,0.18,Wunderground v.1.15,2014-01-11 01:54:00,
2014-01-10 21:04:00,41.8,39.1,30.21,SSW,213,3.0,3.0,90,0.00,,,0.18,Wunderground v.1.15,2014-01-11 02:04:00,
2014-01-10 21:09:00,41.8,39.1,30.21,SSW,213,2.0,2.0,90,0.00,,,0.18,Wunderground v.1.15,2014-01-11 02:09:00,
2014-01-10 21:14:00,41.8,39.1,30.21,SSW,213,2.0,2.0,90,0.00,,,0.18,Wunderground v.1.15,2014-01-11 02:14:00,
2014-01-10 21:19:00,41.6,39.2,30.21,SSW,213,2.0,3.0,91,0.00,,,0.18,Wunderground v.1.15,2014-01-11 02:19:00,
2014-01-10 21:24:00,41.7,39.0,30.21,SSW,213,3.0,4.0,90,0.00,,,0.18,Wunderground v.1.15,2014-01-11 02:24:00,
2014-01-10 21:34:00,41.6,38.9,30.20,SSE,165,3.0,5.0,90,0.00,,,0.18,Wunderground v.1.15,2014-01-11 02:34:00,
2014-01-10 21:39:00,41.6,38.9,30.20,SSW,213,4.0,4.0,90,0.00,,,0.18,Wunderground v.1.15,2014-01-11 02:39:00,
2014-01-10 21:49:00,41.7,39.0,30.20,South,185,5.0,5.0,90,0.00,,,0.18,Wunderground v.1.15,2014-01-11 02:49:00,
2014-01-10 21:54:00,42.0,39.6,30.19,South,181,7.0,7.0,91,0.00,,,0.18,Wunderground v.1.15,2014-01-11 02:54:00,
2014-01-10 21:59:00,41.9,39.5,30.19,SSW,202,7.0,10.0,91,0.00,,,0.18,Wunderground v.1.15,2014-01-11 02:59:00,
2014-01-10 22:04:00,41.8,39.4,30.19,South,184,7.0,10.0,91,0.00,,,0.18,Wunderground v.1.15,2014-01-11 03:04:00,
2014-01-10 22:09:00,41.7,39.0,30.18,South,178,7.0,9.0,90,0.00,,,0.18,Wunderground v.1.15,2014-01-11 03:09:00,
2014-01-10 22:14:00,41.7,39.0,30.18,SSW,194,6.0,9.0,90,0.00,,,0.18,Wunderground v.1.15,2014-01-11 03:14:00,
2014-01-10 22:24:00,41.5,39.1,30.18,SSW,193,5.0,6.0,91,0.00,,,0.18,Wunderground v.1.15,2014-01-11 03:24:00,
2014-01-10 22:29:00,41.7,39.0,30.18,SW,223,7.0,10.0,90,0.00,,,0.18,Wunderground v.1.15,2014-01-11 03:29:00,
2014-01-10 22:34:00,42.3,39.6,30.18,SW,227,10.0,10.0,90,0.00,,,0.19,Wunderground v.1.15,2014-01-11 03:34:00,
2014-01-10 22:39:00,42.5,39.8,30.18,SW,220,12.0,13.0,90,0.00,,,0.19,Wunderground v.1.15,2014-01-11 03:39:00,
2014-01-10 22:49:00,42.6,40.2,30.17,SW,232,14.0,14.0,91,0.00,,,0.19,Wunderground v.1.15,2014-01-11 03:49:00,
2014-01-10 22:54:00,42.5,39.8,30.17,SW,229,12.0,14.0,90,0.00,,,0.19,Wunderground v.1.15,2014-01-11 03:54:00,
2014-01-10 23:04:00,42.2,39.8,30.17,SW,229,11.0,11.0,91,0.00,,,0.19,Wunderground v.1.15,2014-01-11 04:04:00,
2014-01-10 23:09:00,42.0,39.6,30.16,SW,219,10.0,10.0,91,0.00,,,0.19,Wunderground v.1.15,2014-01-11 04:09:00,
2014-01-10 23:14:00,41.9,39.2,30.16,SW,216,10.0,10.0,90,0.00,,,0.19,Wunderground v.1.15,2014-01-11 04:14:00,
2014-01-10 23:19:00,42.0,39.6,30.16,SW,229,11.0,11.0,91,0.00,,,0.19,Wunderground v.1.15,2014-01-11 04:19:00,
2014-01-10 23:24:00,41.8,39.4,30.15,SW,217,11.0,11.0,91,0.00,,,0.19,Wunderground v.1.15,2014-01-11 04:24:00,
2014-01-10 23:29:00,41.7,39.0,30.15,SW,223,11.0,11.0,90,0.00,,,0.19,Wunderground v.1.15,2014-01-11 04:29:00,
2014-01-10 23:39:00,42.1,39.7,30.14,SW,234,12.0,14.0,91,0.00,,,0.19,Wunderground v.1.15,2014-01-11 04:39:00,
2014-01-10 23:44:00,42.2,39.8,30.13,SW,229,12.0,14.0,91,0.00,,,0.19,Wunderground v.1.15,2014-01-11 04:44:00,
2014-01-10 23:54:00,42.7,40.3,30.12,SW,220,12.0,16.0,91,0.00,,,0.19,Wunderground v.1.15,2014-01-11 04:54:00,